Time;durP1;ratioP1;P1;durP2;ratioP2;P2;SDS_P1;SDS_P2;PMS_P1;PMS_P2;Temp;Humidity;BMP_temperature;BMP_pressure;BME280_temperature;BME280_humidity;BME280_pressure;Samples;Min_cycle;Max_cycle;Signal;HPM_P1;HPM_P2
2023/07/03 04:00:20;;;;;;;1.37;1.37;;;15.40;99.90;;;;;;6027562;23;22111;31
2023/07/03 04:02:48;;;;;;;1.67;1.57;;;15.40;99.90;;;;;;4961703;29;20476;-74
2023/07/03 04:05:15;;;;;;;2.30;2.20;;;15.50;99.90;;;;;;4959480;29;20500;-74
2023/07/03 04:07:42;;;;;;;1.87;1.80;;;15.50;99.90;;;;;;4961475;29;20464;-74
2023/07/03 04:10:09;;;;;;;1.80;1.80;;;15.60;99.90;;;;;;4963743;29;20469;-73
2023/07/03 04:12:36;;;;;;;2.07;1.97;;;15.70;99.90;;;;;;4943617;29;20470;-72
2023/07/03 04:15:04;;;;;;;2.13;2.03;;;15.70;99.90;;;;;;4943026;29;20457;-72
2023/07/03 04:17:32;;;;;;;3.53;2.00;;;15.70;99.90;;;;;;5015088;23;20621;-69
2023/07/03 04:19:58;;;;;;;3.53;2.87;;;15.70;99.90;;;;;;4990239;28;20470;-69
2023/07/03 04:22:26;;;;;;;1.37;1.30;;;15.80;99.90;;;;;;4990285;28;20463;-70
2023/07/03 04:24:53;;;;;;;4.60;4.20;;;15.80;99.90;;;;;;4990234;28;20857;-69
2023/07/03 04:27:20;;;;;;;4.10;2.50;;;15.80;99.90;;;;;;4989812;28;20495;-69
2023/07/03 04:29:47;;;;;;;2.30;2.10;;;15.80;99.90;;;;;;4991885;28;20466;-69
2023/07/03 04:32:14;;;;;;;2.90;1.90;;;15.90;99.90;;;;;;4994344;28;20788;-69
2023/07/03 04:34:42;;;;;;;2.00;1.80;;;15.90;99.90;;;;;;4993766;28;20465;-69
2023/07/03 04:37:09;;;;;;;3.10;2.07;;;16.00;99.90;;;;;;4993859;28;20490;-69
2023/07/03 04:39:36;;;;;;;2.20;2.10;;;16.00;99.90;;;;;;4993945;28;20578;-69
2023/07/03 04:42:03;;;;;;;1.77;1.63;;;16.10;99.90;;;;;;4991607;28;20473;-69
2023/07/03 04:44:33;;;;;;;2.50;1.97;;;16.10;99.90;;;;;;4992552;28;20573;-69
2023/07/03 04:47:04;;;;;;;2.10;2.00;;;16.10;99.90;;;;;;4994032;28;20582;-69
2023/07/03 04:49:31;;;;;;;2.10;2.00;;;16.20;99.90;;;;;;4993401;28;20899;-69
2023/07/03 04:51:59;;;;;;;1.73;1.63;;;16.20;99.90;;;;;;4993901;28;20466;-69
2023/07/03 04:54:27;;;;;;;5.40;2.47;;;16.40;99.90;;;;;;4993762;28;20465;-69
2023/07/03 04:56:54;;;;;;;1.13;0.90;;;16.70;99.90;;;;;;4993063;28;20590;-68
2023/07/03 04:59:21;;;;;;;2.50;2.30;;;16.80;99.90;;;;;;4993798;28;20462;-68
2023/07/03 05:01:48;;;;;;;3.90;1.83;;;16.80;99.90;;;;;;4993790;28;20466;-69
2023/07/03 05:04:15;;;;;;;3.60;2.27;;;16.80;99.90;;;;;;4992967;28;20496;-68
2023/07/03 05:06:41;;;;;;;4.70;1.83;;;16.80;99.90;;;;;;4993495;28;20967;-69
2023/07/03 05:09:09;;;;;;;2.57;2.00;;;16.70;99.90;;;;;;4993538;28;20481;-69
2023/07/03 05:11:36;;;;;;;3.47;1.30;;;16.70;99.90;;;;;;4993115;28;20466;-69
2023/07/03 05:14:03;;;;;;;1.90;1.53;;;16.70;99.90;;;;;;4993522;28;20467;-69
2023/07/03 05:16:29;;;;;;;2.93;2.30;;;16.60;99.90;;;;;;4993375;28;20955;-69
2023/07/03 05:18:56;;;;;;;2.33;1.37;;;16.60;99.90;;;;;;4993059;28;20474;-69
2023/07/03 05:21:23;;;;;;;2.17;1.50;;;16.60;99.90;;;;;;4993467;28;20466;-69
2023/07/03 05:23:50;;;;;;;2.33;1.73;;;16.70;99.90;;;;;;4992877;28;20463;-69
2023/07/03 05:26:18;;;;;;;1.43;1.43;;;16.70;99.90;;;;;;4992798;28;20866;-70
2023/07/03 05:28:44;;;;;;;1.40;1.30;;;16.70;99.90;;;;;;4993188;28;20463;-70
2023/07/03 05:31:11;;;;;;;2.60;1.80;;;16.80;99.90;;;;;;4993243;28;20466;-70
2023/07/03 05:33:38;;;;;;;1.77;1.60;;;17.00;99.90;;;;;;4992649;28;20475;-70
2023/07/03 05:36:06;;;;;;;2.63;2.43;;;17.10;99.90;;;;;;4992783;28;20489;-70
2023/07/03 05:38:33;;;;;;;1.63;1.53;;;17.20;99.90;;;;;;4992834;28;20474;-68
2023/07/03 05:41:00;;;;;;;2.00;1.60;;;17.30;99.90;;;;;;4991806;28;20837;-69
2023/07/03 05:43:29;;;;;;;1.97;1.80;;;17.40;99.90;;;;;;4992764;28;20463;-68
2023/07/03 05:45:56;;;;;;;1.63;1.53;;;17.40;99.90;;;;;;4992117;28;20490;-68
2023/07/03 05:48:23;;;;;;;2.30;1.40;;;17.50;99.90;;;;;;4992370;28;20479;-68
2023/07/03 05:50:50;;;;;;;1.60;1.50;;;17.60;99.90;;;;;;4992643;28;20585;-68
2023/07/03 05:53:17;;;;;;;1.20;1.20;;;17.50;99.90;;;;;;4992665;28;20473;-68
2023/07/03 05:55:44;;;;;;;3.43;2.20;;;17.50;99.90;;;;;;4992555;28;20470;-69
2023/07/03 05:58:11;;;;;;;1.50;1.40;;;17.40;99.90;;;;;;4992333;28;20525;-69
2023/07/03 06:00:40;;;;;;;1.63;1.60;;;17.40;99.90;;;;;;4992593;28;20986;-69
2023/07/03 06:03:09;;;;;;;2.87;2.30;;;17.40;99.90;;;;;;4992710;28;20502;-69
2023/07/03 06:05:36;;;;;;;2.10;1.90;;;17.70;99.90;;;;;;4991600;28;20491;-69
2023/07/03 06:08:03;;;;;;;1.57;1.47;;;17.80;99.90;;;;;;4992642;28;20470;-69
2023/07/03 06:10:29;;;;;;;1.80;1.70;;;18.00;99.90;;;;;;4992250;28;20466;-69
2023/07/03 06:12:56;;;;;;;2.87;1.77;;;18.40;99.90;;;;;;4992187;28;20823;-69
2023/07/03 06:15:23;;;;;;;2.20;2.00;;;19.00;99.90;;;;;;4992203;28;20463;-69
2023/07/03 06:17:51;;;;;;;2.00;1.90;;;18.80;99.90;;;;;;4991988;28;20889;-69
2023/07/03 06:20:18;;;;;;;2.00;1.60;;;18.60;99.90;;;;;;4991307;28;20462;-69
2023/07/03 06:22:44;;;;;;;4.33;2.30;;;18.30;99.90;;;;;;4992788;28;20842;-69
2023/07/03 06:25:11;;;;;;;3.63;1.80;;;18.00;99.90;;;;;;4992255;28;20502;-69
2023/07/03 06:27:38;;;;;;;1.80;1.70;;;17.90;99.90;;;;;;4992059;28;20483;-70
2023/07/03 06:30:06;;;;;;;1.67;1.57;;;17.80;99.90;;;;;;4992469;28;20522;-69
2023/07/03 06:32:33;;;;;;;2.97;1.60;;;17.60;99.90;;;;;;4992155;28;20473;-69
2023/07/03 06:35:01;;;;;;;3.37;1.80;;;17.60;99.90;;;;;;4991686;28;20469;-69
2023/07/03 06:37:28;;;;;;;9.90;2.40;;;17.60;99.90;;;;;;4992572;28;20482;-68
2023/07/03 06:39:55;;;;;;;2.53;1.57;;;17.60;99.90;;;;;;4992081;28;20473;-69
2023/07/03 06:42:21;;;;;;;1.30;1.30;;;17.60;99.90;;;;;;4989247;28;20487;-68
2023/07/03 06:44:48;;;;;;;1.60;1.60;;;17.60;99.90;;;;;;4991645;28;20925;-68
2023/07/03 06:47:15;;;;;;;8.87;2.30;;;17.90;99.90;;;;;;4991931;28;20570;-69
2023/07/03 06:49:42;;;;;;;2.30;1.87;;;18.20;99.90;;;;;;4991577;28;20463;-68
2023/07/03 06:52:11;;;;;;;2.93;1.93;;;18.30;99.90;;;;;;4991755;28;20474;-71
2023/07/03 06:54:37;;;;;;;0.93;0.93;;;18.00;99.90;;;;;;4991446;28;20490;-69
2023/07/03 06:57:04;;;;;;;1.90;0.90;;;17.80;99.90;;;;;;4991524;28;20493;-70
2023/07/03 06:59:31;;;;;;;0.80;0.80;;;17.60;99.90;;;;;;4992220;28;20489;-69
2023/07/03 07:01:58;;;;;;;2.90;1.13;;;17.50;99.90;;;;;;4991637;28;20992;-70
2023/07/03 07:04:27;;;;;;;1.23;1.13;;;17.40;99.90;;;;;;4991050;28;20537;-69
2023/07/03 07:06:54;;;;;;;1.20;1.10;;;17.40;99.90;;;;;;4991330;28;20995;-69
2023/07/03 07:09:22;;;;;;;0.70;0.70;;;17.40;99.90;;;;;;4991585;28;20467;-69
2023/07/03 07:11:49;;;;;;;1.60;1.10;;;17.50;99.90;;;;;;4991103;28;20467;-70
2023/07/03 07:14:17;;;;;;;1.60;1.50;;;17.60;99.90;;;;;;4991073;28;20471;-70
2023/07/03 07:16:44;;;;;;;5.90;1.70;;;17.60;99.90;;;;;;4991698;28;20491;-69
2023/07/03 07:19:12;;;;;;;1.83;1.57;;;17.60;99.90;;;;;;4991343;28;20467;-70
2023/07/03 07:21:41;;;;;;;9.63;1.50;;;17.60;99.90;;;;;;4991620;28;20517;-70
2023/07/03 07:24:14;;;;;;;2.47;1.00;;;17.60;99.90;;;;;;4991388;28;20473;-70
2023/07/03 07:26:42;;;;;;;13.33;2.30;;;17.80;99.90;;;;;;4991014;28;20495;-69
2023/07/03 07:29:09;;;;;;;2.20;1.37;;;17.80;99.90;;;;;;4991331;28;20467;-70
2023/07/03 07:31:36;;;;;;;5.30;1.67;;;17.90;99.90;;;;;;4991841;28;20462;-70
2023/07/03 07:34:03;;;;;;;1.30;1.30;;;18.00;99.90;;;;;;4991051;28;20562;-69
2023/07/03 07:36:30;;;;;;;6.63;1.70;;;18.10;99.90;;;;;;4991149;28;21017;-70
2023/07/03 07:38:59;;;;;;;1.20;1.20;;;18.80;99.90;;;;;;4991881;28;20889;-68
2023/07/03 07:41:25;;;;;;;2.70;1.20;;;19.00;99.90;;;;;;4990850;28;20466;-68
2023/07/03 07:43:55;;;;;;;1.90;1.33;;;18.90;99.90;;;;;;4990621;28;20459;-68
2023/07/03 07:46:25;;;;;;;1.13;1.13;;;19.30;99.90;;;;;;4991018;28;20489;-68
2023/07/03 07:48:52;;;;;;;1.23;1.23;;;19.90;99.90;;;;;;4990663;28;20560;-68
2023/07/03 07:51:19;;;;;;;1.93;1.27;;;20.00;99.90;;;;;;4991185;28;20577;-68
2023/07/03 07:53:45;;;;;;;3.43;1.80;;;19.90;99.90;;;;;;4991202;28;20462;-68
2023/07/03 07:56:13;;;;;;;3.30;2.17;;;19.70;99.90;;;;;;4990275;28;20485;-69
2023/07/03 07:58:40;;;;;;;1.60;1.50;;;20.00;99.90;;;;;;4991464;28;20548;-69
2023/07/03 08:01:11;;;;;;;1.77;1.53;;;20.00;99.90;;;;;;4991217;28;20747;-69
2023/07/03 08:03:38;;;;;;;1.10;1.10;;;19.70;99.90;;;;;;4990773;28;20968;-69
2023/07/03 08:06:05;;;;;;;1.43;1.33;;;20.00;99.90;;;;;;4990872;28;20584;-68
2023/07/03 08:08:33;;;;;;;3.60;1.67;;;20.50;99.90;;;;;;4991288;28;20467;-69
2023/07/03 08:11:02;;;;;;;1.33;1.10;;;21.00;99.90;;;;;;4990734;28;20476;-69
2023/07/03 08:13:30;;;;;;;4.13;1.73;;;21.40;99.90;;;;;;4991219;28;20472;-68
2023/07/03 08:15:57;;;;;;;1.73;1.70;;;21.00;99.90;;;;;;4990459;28;20989;-68
2023/07/03 08:18:26;;;;;;;2.97;1.80;;;20.60;99.90;;;;;;4990837;28;20502;-68
2023/07/03 08:20:53;;;;;;;1.43;1.20;;;20.50;99.90;;;;;;4990861;28;20464;-69
2023/07/03 08:23:20;;;;;;;1.23;1.13;;;21.10;99.90;;;;;;4991154;28;20480;-69
2023/07/03 08:25:50;;;;;;;1.00;0.97;;;21.10;99.90;;;;;;4990676;28;20531;-68
2023/07/03 08:28:17;;;;;;;1.20;1.20;;;21.60;99.90;;;;;;4991066;28;20470;-69
2023/07/03 08:30:44;;;;;;;1.60;1.27;;;22.10;99.90;;;;;;4990995;28;20979;-68
2023/07/03 08:33:10;;;;;;;1.67;1.23;;;21.60;99.90;;;;;;4991338;28;20470;-69
2023/07/03 08:35:38;;;;;;;2.30;1.70;;;21.10;99.90;;;;;;4989917;28;20461;-68
2023/07/03 08:38:05;;;;;;;2.40;1.60;;;21.10;99.90;;;;;;4991319;28;20473;-68
2023/07/03 08:40:32;;;;;;;5.30;1.27;;;21.00;99.90;;;;;;4990941;28;20469;-68
2023/07/03 08:43:01;;;;;;;5.63;1.50;;;20.80;99.90;;;;;;4988862;28;20467;-68
2023/07/03 08:45:34;;;;;;;2.43;0.93;;;20.60;99.90;;;;;;4990061;28;20485;-68
2023/07/03 08:48:04;;;;;;;1.00;0.90;;;20.20;99.90;;;;;;4990357;28;20476;-68
2023/07/03 08:50:32;;;;;;;0.80;0.80;;;20.40;99.90;;;;;;4990304;28;20466;-68
2023/07/03 08:53:03;;;;;;;1.20;0.80;;;20.50;99.90;;;;;;4990721;28;20469;-68
2023/07/03 08:55:37;;;;;;;1.27;0.73;;;20.40;99.90;;;;;;4990292;28;20469;-68
2023/07/03 08:58:03;;;;;;;3.00;1.43;;;20.40;99.90;;;;;;4990394;28;20482;-69
2023/07/03 09:00:35;;;;;;;1.20;0.73;;;20.10;99.90;;;;;;4990747;28;20488;-68
2023/07/03 09:03:14;;;;;;;1.07;1.07;;;19.80;99.90;;;;;;4991174;28;20475;-68
2023/07/03 09:05:49;;;;;;;2.63;1.90;;;20.00;99.90;;;;;;4990206;28;20537;-68
2023/07/03 09:08:24;;;;;;;1.43;1.33;;;20.30;99.90;;;;;;4991719;28;20470;-68
2023/07/03 09:10:51;;;;;;;3.70;1.10;;;20.60;99.90;;;;;;4990337;28;20581;-68
2023/07/03 09:13:26;;;;;;;2.50;1.50;;;20.70;99.90;;;;;;4991131;28;20482;-69
2023/07/03 09:15:58;;;;;;;1.33;1.20;;;21.00;99.90;;;;;;4990576;28;20502;-68
2023/07/03 09:18:29;;;;;;;0.90;0.90;;;21.30;99.90;;;;;;4993814;28;20481;-69
2023/07/03 09:20:58;;;;;;;1.10;1.10;;;21.90;99.90;;;;;;4994339;28;20477;-68
2023/07/03 09:23:29;;;;;;;2.13;0.93;;;21.90;99.90;;;;;;4993961;28;20463;-68
2023/07/03 09:26:01;;;;;;;1.03;0.80;;;21.90;99.90;;;;;;4993271;28;20846;-67
2023/07/03 09:28:27;;;;;;;1.90;1.20;;;21.90;99.90;;;;;;4994325;28;20470;-68
2023/07/03 09:30:54;;;;;;;3.20;1.53;;;22.00;99.90;;;;;;4993875;28;20462;-68
2023/07/03 09:33:21;;;;;;;0.87;0.80;;;22.00;99.90;;;;;;4994726;28;20934;-68
2023/07/03 09:35:48;;;;;;;1.33;1.00;;;21.80;99.90;;;;;;4993609;28;20466;-68
2023/07/03 09:38:17;;;;;;;1.03;1.03;;;21.80;99.90;;;;;;4993606;28;20466;-68
2023/07/03 09:40:48;;;;;;;2.33;1.03;;;21.70;99.90;;;;;;4993836;28;20465;-68
2023/07/03 09:43:19;;;;;;;1.23;1.10;;;21.80;99.90;;;;;;4993514;28;20486;-68
2023/07/03 09:45:46;;;;;;;2.23;0.97;;;21.70;99.90;;;;;;4993025;28;20493;-70
2023/07/03 09:48:18;;;;;;;1.07;1.07;;;21.70;99.90;;;;;;4993491;28;20467;-68
2023/07/03 09:50:45;;;;;;;1.30;1.20;;;21.90;99.90;;;;;;4993003;28;20467;-68
2023/07/03 09:53:17;;;;;;;1.40;1.40;;;22.10;99.90;;;;;;4993583;28;20944;-68
2023/07/03 09:55:46;;;;;;;1.60;1.50;;;22.20;99.90;;;;;;4993172;28;20460;-68
2023/07/03 09:58:15;;;;;;;1.67;1.57;;;22.30;99.90;;;;;;4993103;28;20476;-68
2023/07/03 10:00:47;;;;;;;2.70;1.27;;;22.10;99.90;;;;;;4993142;28;20474;-68
2023/07/03 10:03:22;;;;;;;1.60;1.13;;;22.30;99.90;;;;;;4993322;28;20472;-67
2023/07/03 10:05:50;;;;;;;0.83;0.70;;;22.30;99.90;;;;;;4992989;28;20905;-68
2023/07/03 10:08:23;;;;;;;0.87;0.87;;;22.00;99.90;;;;;;4993140;28;20473;-67
2023/07/03 10:10:54;;;;;;;1.17;1.17;;;21.70;99.90;;;;;;4992676;28;20475;-67
2023/07/03 10:13:25;;;;;;;1.93;1.40;;;21.40;99.90;;;;;;4993098;28;20857;-67
2023/07/03 10:15:54;;;;;;;1.80;0.97;;;21.10;99.90;;;;;;4992423;28;20501;-67
2023/07/03 10:18:26;;;;;;;1.27;1.23;;;21.00;99.90;;;;;;4993009;28;20507;-67
2023/07/03 10:20:53;;;;;;;2.83;1.53;;;20.90;99.90;;;;;;4993527;28;20843;-67
2023/07/03 10:23:23;;;;;;;2.40;2.20;;;20.90;99.90;;;;;;4992857;28;21038;-67
2023/07/03 10:25:56;;;;;;;1.77;1.13;;;21.10;99.90;;;;;;4992177;28;20500;-67
2023/07/03 10:28:26;;;;;;;1.87;1.77;;;21.20;99.90;;;;;;4992662;28;20886;-66
2023/07/03 10:30:58;;;;;;;1.70;0.70;;;21.40;99.90;;;;;;4992914;28;20467;-67
2023/07/03 10:33:30;;;;;;;1.10;1.10;;;21.60;99.90;;;;;;4992285;28;20466;-67
2023/07/03 10:35:58;;;;;;;1.23;0.90;;;21.90;99.90;;;;;;4992275;28;20506;-68
2023/07/03 10:38:31;;;;;;;2.00;1.27;;;21.80;99.90;;;;;;4992376;28;20882;-68
2023/07/03 10:41:04;;;;;;;2.50;1.43;;;21.70;99.90;;;;;;4992273;28;20466;-68
2023/07/03 10:43:36;;;;;;;1.67;1.57;;;21.80;99.90;;;;;;4992294;28;20467;-68
2023/07/03 10:46:06;;;;;;;2.30;1.13;;;21.70;99.90;;;;;;4991866;28;20497;-67
2023/07/03 10:48:34;;;;;;;1.77;1.67;;;21.60;99.90;;;;;;4991735;28;20470;-67
2023/07/03 10:51:13;;;;;;;3.40;1.80;;;21.30;99.90;;;;;;4992016;28;20476;-68
2023/07/03 10:53:44;;;;;;;1.00;0.93;;;20.90;99.90;;;;;;4992268;28;20464;-68
2023/07/03 10:56:18;;;;;;;0.90;0.90;;;20.60;99.90;;;;;;4991617;28;20887;-67
2023/07/03 10:58:51;;;;;;;1.00;1.00;;;20.20;99.90;;;;;;4992301;28;20494;-68
2023/07/03 11:01:27;;;;;;;2.37;1.40;;;19.90;99.90;;;;;;4992293;28;20470;-68
2023/07/03 11:03:57;;;;;;;2.10;1.30;;;19.70;99.90;;;;;;4992122;28;20480;-70
2023/07/03 11:06:31;;;;;;;1.03;1.03;;;19.60;99.90;;;;;;4991935;28;20529;-69
2023/07/03 11:09:03;;;;;;;1.40;1.40;;;19.50;99.90;;;;;;4992273;28;21006;-70
2023/07/03 11:11:42;;;;;;;5.13;2.30;;;19.40;99.90;;;;;;4991507;28;20477;-69
2023/07/03 11:14:18;;;;;;;0.87;0.87;;;19.40;99.90;;;;;;4991632;28;20488;-67
2023/07/03 11:17:00;;;;;;;2.17;1.10;;;19.40;99.90;;;;;;4991728;28;20486;-67
2023/07/03 11:19:35;;;;;;;6.43;2.40;;;19.40;99.90;;;;;;4991829;28;20486;-69
2023/07/03 11:22:13;;;;;;;3.57;1.57;;;19.40;99.90;;;;;;4992062;28;20482;-68
2023/07/03 11:24:52;;;;;;;3.40;1.53;;;19.50;99.90;;;;;;4991472;28;20560;-68
2023/07/03 11:27:27;;;;;;;1.70;1.30;;;19.50;99.90;;;;;;4991296;28;20500;-68
2023/07/03 11:29:54;;;;;;;2.20;1.23;;;19.70;99.90;;;;;;4991620;28;20462;-68
2023/07/03 11:32:23;;;;;;;1.80;1.50;;;19.80;99.90;;;;;;4991444;28;20537;-68
2023/07/03 11:34:52;;;;;;;1.20;0.87;;;20.00;99.90;;;;;;4990652;28;20483;-69
2023/07/03 11:37:46;;;;;;;1.40;1.20;;;20.50;99.90;;;;;;4991345;28;20484;-68
2023/07/03 11:40:29;;;;;;;1.50;1.50;;;20.50;99.90;;;;;;4988605;28;20472;-67
2023/07/03 11:43:29;;;;;;;0.97;0.97;;;20.40;99.90;;;;;;4990991;28;20530;-68
2023/07/03 11:46:18;;;;;;;1.33;0.80;;;20.00;99.90;;;;;;4987179;28;20952;-68
2023/07/03 11:48:48;;;;;;;4.10;1.77;;;19.70;99.90;;;;;;4991471;28;20588;-68
2023/07/03 11:51:17;;;;;;;1.80;1.20;;;19.50;99.90;;;;;;4991409;28;20584;-68
2023/07/03 11:53:47;;;;;;;1.43;1.43;;;18.90;99.90;;;;;;4991090;28;20469;-68
2023/07/03 11:56:35;;;;;;;1.23;1.20;;;18.30;99.90;;;;;;4990811;28;20483;-68
2023/07/03 11:59:05;;;;;;;1.43;1.37;;;18.00;99.90;;;;;;4991027;28;20463;-68
2023/07/03 12:01:31;;;;;;;1.40;1.30;;;17.90;99.90;;;;;;4991139;28;20462;-68
2023/07/03 12:03:59;;;;;;;7.73;1.53;;;17.90;99.90;;;;;;4990349;28;20465;-68
2023/07/03 12:06:47;;;;;;;9.07;1.57;;;17.90;99.90;;;;;;4991035;28;20538;-67
2023/07/03 12:09:23;;;;;;;1.60;1.40;;;17.90;99.90;;;;;;4991097;28;20462;-69
2023/07/03 12:12:16;;;;;;;1.03;1.03;;;17.80;99.90;;;;;;4990880;28;20508;-69
2023/07/03 12:15:12;;;;;;;1.40;1.30;;;17.80;99.90;;;;;;4990985;28;20980;-69
2023/07/03 12:17:39;;;;;;;6.13;1.40;;;17.80;99.90;;;;;;4989029;28;20517;-70
2023/07/03 12:20:10;;;;;;;1.30;1.10;;;17.70;99.90;;;;;;4990806;28;20458;-68
2023/07/03 12:22:39;;;;;;;1.37;1.27;;;17.70;99.90;;;;;;4991335;28;20463;-68
2023/07/03 12:25:08;;;;;;;1.30;1.30;;;17.70;99.90;;;;;;4991554;28;20463;-69
2023/07/03 12:27:35;;;;;;;2.10;2.03;;;17.60;99.90;;;;;;4990812;28;20501;-69
2023/07/03 12:30:02;;;;;;;1.47;1.37;;;17.50;99.90;;;;;;4991034;28;20467;-68
2023/07/03 12:32:32;;;;;;;0.87;0.87;;;17.50;99.90;;;;;;4991027;28;20641;-69
2023/07/03 12:35:14;;;;;;;1.43;1.43;;;17.50;99.90;;;;;;4990652;28;20474;-68
2023/07/03 12:37:44;;;;;;;0.93;0.93;;;17.40;99.90;;;;;;4990802;28;20483;-68
2023/07/03 12:40:11;;;;;;;3.50;1.17;;;17.40;99.90;;;;;;4990712;28;20916;-68
2023/07/03 12:42:38;;;;;;;0.73;0.73;;;17.30;99.90;;;;;;4989695;28;20821;-69
2023/07/03 12:45:14;;;;;;;2.33;1.23;;;17.30;99.90;;;;;;4990334;28;20463;-69
2023/07/03 12:47:42;;;;;;;1.93;1.00;;;17.10;99.90;;;;;;4990341;28;20490;-68
2023/07/03 12:50:14;;;;;;;3.13;1.10;;;17.00;99.90;;;;;;4991042;28;20489;-68
2023/07/03 12:52:41;;;;;;;0.77;0.77;;;16.90;99.90;;;;;;4994907;28;20466;-68
2023/07/03 12:55:09;;;;;;;0.80;0.80;;;16.90;99.90;;;;;;4994303;28;20924;-68
2023/07/03 12:57:38;;;;;;;1.50;0.60;;;17.00;99.90;;;;;;4994008;28;20482;-68
2023/07/03 13:00:09;;;;;;;0.80;0.50;;;17.20;99.90;;;;;;4993789;28;20474;-68
2023/07/03 13:02:37;;;;;;;2.00;0.97;;;17.40;99.90;;;;;;4994384;28;20811;-68
2023/07/03 13:05:08;;;;;;;0.83;0.83;;;17.50;99.90;;;;;;4993724;28;20627;-68
2023/07/03 13:07:35;;;;;;;0.90;0.90;;;17.70;99.90;;;;;;4993938;28;20546;-68
2023/07/03 13:10:14;;;;;;;2.40;0.60;;;17.90;99.90;;;;;;4993940;28;20466;-68
2023/07/03 13:12:41;;;;;;;1.17;1.17;;;18.20;99.90;;;;;;4993462;28;20462;-68
2023/07/03 13:15:11;;;;;;;0.57;0.57;;;18.40;99.90;;;;;;4993450;28;20466;-68
2023/07/03 13:17:39;;;;;;;0.70;0.70;;;18.60;99.90;;;;;;4993919;28;20490;-68
2023/07/03 13:20:28;;;;;;;0.83;0.83;;;18.60;99.90;;;;;;4993430;28;20468;-68
2023/07/03 13:22:58;;;;;;;1.40;1.30;;;18.70;99.90;;;;;;4993830;28;20489;-68
2023/07/03 13:25:33;;;;;;;1.47;1.47;;;18.70;99.90;;;;;;4993390;28;20537;-68
2023/07/03 13:28:01;;;;;;;0.80;0.80;;;18.70;99.90;;;;;;4993166;28;20573;-68
2023/07/03 13:30:31;;;;;;;1.30;1.07;;;18.60;99.90;;;;;;4993730;28;20466;-68
2023/07/03 13:33:01;;;;;;;1.33;0.70;;;18.50;99.90;;;;;;4993960;28;20533;-68
2023/07/03 13:35:33;;;;;;;1.37;0.77;;;18.50;99.90;;;;;;4992819;28;20470;-68
2023/07/03 13:38:28;;;;;;;0.70;0.70;;;18.40;99.90;;;;;;4993899;28;20469;-68
2023/07/03 13:40:58;;;;;;;1.20;0.47;;;18.20;99.90;;;;;;4980524;28;20479;-68
2023/07/03 13:43:28;;;;;;;0.80;0.50;;;18.10;99.90;;;;;;4993337;28;20461;-68
2023/07/03 13:45:56;;;;;;;1.17;0.90;;;18.10;99.90;;;;;;4993382;28;20497;-69
2023/07/03 13:48:24;;;;;;;0.70;0.70;;;18.10;99.90;;;;;;4993258;28;20570;-68
2023/07/03 13:50:54;;;;;;;0.93;0.93;;;18.10;99.90;;;;;;4993916;28;20826;-68
2023/07/03 13:53:21;;;;;;;3.00;1.17;;;18.30;99.90;;;;;;4993964;28;20471;-68
2023/07/03 13:55:48;;;;;;;0.90;0.73;;;18.70;99.90;;;;;;4993509;28;20478;-68
2023/07/03 13:58:15;;;;;;;4.33;0.77;;;18.90;99.90;;;;;;4993449;28;20467;-68
2023/07/03 14:00:42;;;;;;;1.23;1.23;;;19.10;99.90;;;;;;4993066;28;20613;-68
2023/07/03 14:03:09;;;;;;;0.80;0.80;;;19.20;99.90;;;;;;4992795;28;20483;-68
2023/07/03 14:05:36;;;;;;;0.50;0.50;;;19.30;99.90;;;;;;4992341;28;20467;-68
2023/07/03 14:08:04;;;;;;;0.90;0.90;;;19.40;99.90;;;;;;4993289;28;20499;-68
2023/07/03 14:10:31;;;;;;;0.67;0.67;;;19.50;99.90;;;;;;4993031;28;20472;-68
2023/07/03 14:12:58;;;;;;;1.80;1.20;;;19.60;99.90;;;;;;4992313;28;20481;-68
2023/07/03 14:15:27;;;;;;;1.80;0.83;;;19.60;99.90;;;;;;4992695;28;20471;-68
2023/07/03 14:17:54;;;;;;;1.90;0.60;;;19.50;99.90;;;;;;4992697;28;20926;-68
2023/07/03 14:20:22;;;;;;;0.40;0.40;;;19.50;99.90;;;;;;4992583;28;20472;-68
2023/07/03 14:22:49;;;;;;;0.67;0.67;;;19.40;99.90;;;;;;4993138;28;20466;-68
2023/07/03 14:25:17;;;;;;;1.67;0.77;;;19.30;99.90;;;;;;4992455;28;20475;-68
2023/07/03 14:27:44;;;;;;;1.33;0.70;;;19.30;99.90;;;;;;4991791;28;20994;-68
2023/07/03 14:30:12;;;;;;;1.33;0.63;;;19.40;99.90;;;;;;4992846;28;20805;-68
2023/07/03 14:32:39;;;;;;;0.57;0.57;;;19.40;99.90;;;;;;4992657;28;20551;-68
2023/07/03 14:35:07;;;;;;;0.53;0.53;;;19.30;99.90;;;;;;4992798;28;20612;-68
2023/07/03 14:37:34;;;;;;;0.70;0.70;;;19.30;99.90;;;;;;4993111;28;20483;-68
2023/07/03 14:40:01;;;;;;;0.70;0.70;;;19.20;99.90;;;;;;4993098;28;20476;-68
2023/07/03 14:42:29;;;;;;;0.30;0.30;;;19.10;99.90;;;;;;4992318;28;20467;-68
2023/07/03 14:44:56;;;;;;;0.60;0.60;;;19.00;99.90;;;;;;4992689;28;20459;-68
2023/07/03 14:47:23;;;;;;;1.20;1.20;;;19.00;99.90;;;;;;4992510;28;20495;-68
2023/07/03 14:49:50;;;;;;;0.57;0.57;;;19.00;99.90;;;;;;4992518;28;20463;-68
2023/07/03 14:52:19;;;;;;;1.53;0.80;;;19.00;99.90;;;;;;4992655;28;20558;-68
2023/07/03 14:54:45;;;;;;;1.00;0.60;;;19.00;99.90;;;;;;4992339;28;20928;-68
2023/07/03 14:57:12;;;;;;;2.10;0.97;;;19.10;99.90;;;;;;4991859;28;20483;-68
2023/07/03 14:59:42;;;;;;;0.87;0.87;;;19.20;99.90;;;;;;4992445;28;20474;-69
2023/07/03 15:02:09;;;;;;;1.80;1.00;;;19.30;99.90;;;;;;4992598;28;20559;-68
2023/07/03 15:04:35;;;;;;;0.70;0.70;;;19.30;99.90;;;;;;4991978;28;20463;-68
2023/07/03 15:07:02;;;;;;;0.90;0.60;;;19.40;99.90;;;;;;4992035;28;20510;-68
2023/07/03 15:09:29;;;;;;;1.30;1.10;;;19.40;99.90;;;;;;4992098;28;20467;-68
2023/07/03 15:11:55;;;;;;;1.43;1.33;;;19.50;99.90;;;;;;4991856;28;20467;-68
2023/07/03 15:14:22;;;;;;;0.90;0.90;;;19.60;99.90;;;;;;4991115;28;20530;-69
2023/07/03 15:16:50;;;;;;;2.40;1.10;;;19.70;99.90;;;;;;4992111;28;20811;-68
2023/07/03 15:19:17;;;;;;;0.60;0.60;;;19.70;99.90;;;;;;4991803;28;20471;-68
2023/07/03 15:21:44;;;;;;;1.63;0.70;;;19.60;99.90;;;;;;4991735;28;20567;-68
2023/07/03 15:24:10;;;;;;;1.07;1.07;;;19.60;99.90;;;;;;4991686;28;20470;-68
2023/07/03 15:26:38;;;;;;;1.20;0.80;;;19.40;99.90;;;;;;4991441;28;20510;-68
2023/07/03 15:29:05;;;;;;;2.13;1.03;;;19.40;99.90;;;;;;4992025;28;20600;-68
2023/07/03 15:31:32;;;;;;;0.70;0.70;;;19.30;99.90;;;;;;4991679;28;20478;-68
2023/07/03 15:34:00;;;;;;;1.30;1.30;;;19.30;99.90;;;;;;4991224;28;20525;-68
2023/07/03 15:36:27;;;;;;;0.87;0.83;;;19.20;99.90;;;;;;4991328;28;20475;-68
2023/07/03 15:38:53;;;;;;;1.23;1.23;;;19.10;99.90;;;;;;4991851;28;20455;-68
2023/07/03 15:41:20;;;;;;;0.90;0.90;;;19.10;99.90;;;;;;4991412;28;20473;-68
2023/07/03 15:43:47;;;;;;;0.60;0.60;;;19.00;99.90;;;;;;4990702;28;20830;-68
2023/07/03 15:46:16;;;;;;;1.40;1.03;;;18.90;99.90;;;;;;4990317;28;20502;-68
2023/07/03 15:48:44;;;;;;;4.70;1.40;;;18.80;99.90;;;;;;4990265;28;20486;-68
2023/07/03 15:51:14;;;;;;;3.03;1.77;;;18.80;99.90;;;;;;4990658;28;20485;-69
2023/07/03 15:53:41;;;;;;;1.40;1.30;;;18.80;99.90;;;;;;4990891;28;20796;-69
2023/07/03 15:56:09;;;;;;;0.83;0.83;;;18.80;99.90;;;;;;4990077;28;20490;-69
2023/07/03 15:58:40;;;;;;;2.93;1.10;;;18.80;99.90;;;;;;4990527;28;20638;-69
2023/07/03 16:01:08;;;;;;;2.87;1.30;;;18.70;99.90;;;;;;4990334;28;20475;-69
2023/07/03 16:03:35;;;;;;;2.63;1.40;;;18.70;99.90;;;;;;4989804;28;20467;-69
2023/07/03 16:06:04;;;;;;;0.73;0.73;;;18.60;99.90;;;;;;4990326;28;20488;-69
2023/07/03 16:08:33;;;;;;;2.47;1.23;;;18.60;99.90;;;;;;4990516;28;20487;-69
2023/07/03 16:11:01;;;;;;;3.50;1.17;;;18.50;99.90;;;;;;4990072;28;20474;-68
2023/07/03 16:13:28;;;;;;;1.33;1.10;;;18.50;99.90;;;;;;4990514;28;20487;-68
2023/07/03 16:15:55;;;;;;;3.10;1.03;;;18.50;99.90;;;;;;4989895;28;20490;-69
2023/07/03 16:18:21;;;;;;;0.70;0.70;;;18.50;99.90;;;;;;4990596;28;20900;-68
2023/07/03 16:20:55;;;;;;;0.80;0.80;;;18.50;99.90;;;;;;4990987;28;20489;-71
2023/07/03 16:23:22;;;;;;;3.53;0.60;;;18.50;99.90;;;;;;4990420;28;20529;-70
2023/07/03 16:25:51;;;;;;;1.30;1.20;;;18.40;99.90;;;;;;4991690;28;20474;-71
2023/07/03 16:28:18;;;;;;;0.77;0.77;;;18.40;99.90;;;;;;4994245;28;20487;-71
2023/07/03 16:31:02;;;;;;;1.27;0.83;;;18.50;99.90;;;;;;4994268;28;20735;-71
2023/07/03 16:33:29;;;;;;;0.60;0.60;;;18.50;99.90;;;;;;4993991;28;20466;-70
2023/07/03 16:35:57;;;;;;;0.63;0.63;;;18.50;99.90;;;;;;4994313;28;20482;-70
2023/07/03 16:38:23;;;;;;;1.03;1.00;;;18.50;99.90;;;;;;4994581;28;20450;-71
2023/07/03 16:40:52;;;;;;;0.97;0.97;;;18.50;99.90;;;;;;4993775;28;20472;-69
2023/07/03 16:43:18;;;;;;;6.40;0.83;;;18.50;99.90;;;;;;4994506;28;20558;-70
2023/07/03 16:45:45;;;;;;;0.60;0.60;;;18.50;99.90;;;;;;4993788;28;20463;-70
2023/07/03 16:48:12;;;;;;;1.40;1.20;;;18.40;99.90;;;;;;4994410;28;20493;-69
2023/07/03 16:50:38;;;;;;;0.33;0.33;;;18.40;99.90;;;;;;4993991;28;20462;-70
2023/07/03 16:53:05;;;;;;;0.93;0.83;;;18.40;99.90;;;;;;4994074;28;20467;-72
2023/07/03 16:55:33;;;;;;;2.33;0.90;;;18.40;99.90;;;;;;4993720;28;20517;-68
2023/07/03 16:58:01;;;;;;;0.83;0.70;;;18.30;99.90;;;;;;4993596;28;20459;-69